sensor_id;sensor_type;location;lat;lon;timestamp;temperature;humidity
69598;SHT31;70000;51.176;-115.568;2023-12-20T00:02:02;2.36;70.26
69598;SHT31;70000;51.176;-115.568;2023-12-20T00:04:32;2.37;70.33
69598;SHT31;70000;51.176;-115.568;2023-12-20T00:07:01;2.43;70.34
69598;SHT31;70000;51.176;-115.568;2023-12-20T00:09:30;2.49;70.27
69598;SHT31;70000;51.176;-115.568;2023-12-20T00:11:59;2.52;70.21
69598;SHT31;70000;51.176;-115.568;2023-12-20T00:14:27;2.53;70.20
69598;SHT31;70000;51.176;-115.568;2023-12-20T00:16:57;2.53;70.29
69598;SHT31;70000;51.176;-115.568;2023-12-20T00:19:25;2.51;70.30
69598;SHT31;70000;51.176;-115.568;2023-12-20T00:21:54;2.52;70.37
69598;SHT31;70000;51.176;-115.568;2023-12-20T00:24:23;2.52;70.42
69598;SHT31;70000;51.176;-115.568;2023-12-20T00:26:53;2.49;70.56
69598;SHT31;70000;51.176;-115.568;2023-12-20T00:29:22;2.51;70.67
69598;SHT31;70000;51.176;-115.568;2023-12-20T00:31:51;2.49;70.67
69598;SHT31;70000;51.176;-115.568;2023-12-20T00:34:20;2.50;70.78
69598;SHT31;70000;51.176;-115.568;2023-12-20T00:36:48;2.46;70.71
69598;SHT31;70000;51.176;-115.568;2023-12-20T00:39:20;2.40;70.77
69598;SHT31;70000;51.176;-115.568;2023-12-20T00:41:49;2.39;70.90
69598;SHT31;70000;51.176;-115.568;2023-12-20T00:44:18;2.41;70.86
69598;SHT31;70000;51.176;-115.568;2023-12-20T00:46:47;2.43;70.86
69598;SHT31;70000;51.176;-115.568;2023-12-20T00:49:19;2.44;70.74
69598;SHT31;70000;51.176;-115.568;2023-12-20T00:51:49;2.45;70.71
69598;SHT31;70000;51.176;-115.568;2023-12-20T00:54:20;2.47;70.68
69598;SHT31;70000;51.176;-115.568;2023-12-20T00:56:52;2.45;70.72
69598;SHT31;70000;51.176;-115.568;2023-12-20T00:59:57;2.43;70.81
69598;SHT31;70000;51.176;-115.568;2023-12-20T01:02:25;2.45;70.79
69598;SHT31;70000;51.176;-115.568;2023-12-20T01:04:54;2.44;70.78
69598;SHT31;70000;51.176;-115.568;2023-12-20T01:07:22;2.41;70.86
69598;SHT31;70000;51.176;-115.568;2023-12-20T01:09:50;2.39;70.90
69598;SHT31;70000;51.176;-115.568;2023-12-20T01:12:18;2.36;70.94
69598;SHT31;70000;51.176;-115.568;2023-12-20T01:14:47;2.35;71.04
69598;SHT31;70000;51.176;-115.568;2023-12-20T01:17:15;2.31;71.19
69598;SHT31;70000;51.176;-115.568;2023-12-20T01:19:43;2.29;71.28
69598;SHT31;70000;51.176;-115.568;2023-12-20T01:22:12;2.28;71.30
69598;SHT31;70000;51.176;-115.568;2023-12-20T01:27:51;2.31;71.39
69598;SHT31;70000;51.176;-115.568;2023-12-20T01:30:20;2.33;71.35
69598;SHT31;70000;51.176;-115.568;2023-12-20T01:32:49;2.37;71.32
69598;SHT31;70000;51.176;-115.568;2023-12-20T01:35:18;2.40;71.27
69598;SHT31;70000;51.176;-115.568;2023-12-20T01:37:47;2.45;71.16
69598;SHT31;70000;51.176;-115.568;2023-12-20T01:40:16;2.43;71.16
69598;SHT31;70000;51.176;-115.568;2023-12-20T01:42:46;2.46;71.13
69598;SHT31;70000;51.176;-115.568;2023-12-20T01:45:25;2.45;71.16
69598;SHT31;70000;51.176;-115.568;2023-12-20T01:47:55;2.46;71.10
69598;SHT31;70000;51.176;-115.568;2023-12-20T01:50:28;2.45;70.95
69598;SHT31;70000;51.176;-115.568;2023-12-20T01:52:59;2.40;71.05
69598;SHT31;70000;51.176;-115.568;2023-12-20T01:55:32;2.39;71.17
69598;SHT31;70000;51.176;-115.568;2023-12-20T01:58:04;2.36;71.18
69598;SHT31;70000;51.176;-115.568;2023-12-20T02:00:36;2.35;71.21
69598;SHT31;70000;51.176;-115.568;2023-12-20T02:03:06;2.35;71.29
69598;SHT31;70000;51.176;-115.568;2023-12-20T02:05:35;2.38;71.21
69598;SHT31;70000;51.176;-115.568;2023-12-20T02:08:06;2.42;71.13
69598;SHT31;70000;51.176;-115.568;2023-12-20T02:10:35;2.44;71.11
69598;SHT31;70000;51.176;-115.568;2023-12-20T02:13:05;2.46;71.09
69598;SHT31;70000;51.176;-115.568;2023-12-20T02:15:34;2.45;71.08
69598;SHT31;70000;51.176;-115.568;2023-12-20T02:18:10;2.43;71.16
69598;SHT31;70000;51.176;-115.568;2023-12-20T02:20:42;2.42;71.20
69598;SHT31;70000;51.176;-115.568;2023-12-20T02:23:12;2.38;71.30
69598;SHT31;70000;51.176;-115.568;2023-12-20T02:25:43;2.37;71.40
69598;SHT31;70000;51.176;-115.568;2023-12-20T02:28:13;2.36;71.50
69598;SHT31;70000;51.176;-115.568;2023-12-20T02:30:42;2.34;71.56
69598;SHT31;70000;51.176;-115.568;2023-12-20T02:33:48;2.33;71.60
69598;SHT31;70000;51.176;-115.568;2023-12-20T02:36:16;2.33;71.68
69598;SHT31;70000;51.176;-115.568;2023-12-20T02:38:44;2.32;71.78
69598;SHT31;70000;51.176;-115.568;2023-12-20T02:41:13;2.34;71.75
69598;SHT31;70000;51.176;-115.568;2023-12-20T02:43:47;2.41;71.80
69598;SHT31;70000;51.176;-115.568;2023-12-20T02:46:15;2.47;71.66
69598;SHT31;70000;51.176;-115.568;2023-12-20T02:48:45;2.54;71.66
69598;SHT31;70000;51.176;-115.568;2023-12-20T02:51:14;2.58;71.53
69598;SHT31;70000;51.176;-115.568;2023-12-20T02:53:42;2.61;71.55
69598;SHT31;70000;51.176;-115.568;2023-12-20T02:56:11;2.61;71.48
69598;SHT31;70000;51.176;-115.568;2023-12-20T02:58:40;2.57;71.48
69598;SHT31;70000;51.176;-115.568;2023-12-20T03:01:08;2.55;71.58
69598;SHT31;70000;51.176;-115.568;2023-12-20T03:03:37;2.53;71.47
69598;SHT31;70000;51.176;-115.568;2023-12-20T03:06:05;2.49;71.53
69598;SHT31;70000;51.176;-115.568;2023-12-20T03:08:33;2.46;71.57
69598;SHT31;70000;51.176;-115.568;2023-12-20T03:11:02;2.44;71.57
69598;SHT31;70000;51.176;-115.568;2023-12-20T03:13:30;2.44;71.64
69598;SHT31;70000;51.176;-115.568;2023-12-20T03:16:07;2.40;71.60
69598;SHT31;70000;51.176;-115.568;2023-12-20T03:18:37;2.39;71.69
69598;SHT31;70000;51.176;-115.568;2023-12-20T03:21:08;2.38;71.68
69598;SHT31;70000;51.176;-115.568;2023-12-20T03:23:37;2.37;71.71
69598;SHT31;70000;51.176;-115.568;2023-12-20T03:26:08;2.38;71.72
69598;SHT31;70000;51.176;-115.568;2023-12-20T03:28:37;2.38;71.70
69598;SHT31;70000;51.176;-115.568;2023-12-20T03:34:12;2.30;71.87
69598;SHT31;70000;51.176;-115.568;2023-12-20T03:36:41;2.26;71.95
69598;SHT31;70000;51.176;-115.568;2023-12-20T03:39:27;2.23;72.09
69598;SHT31;70000;51.176;-115.568;2023-12-20T03:41:56;2.22;72.00
69598;SHT31;70000;51.176;-115.568;2023-12-20T03:44:25;2.18;72.03
69598;SHT31;70000;51.176;-115.568;2023-12-20T03:46:54;2.17;72.19
69598;SHT31;70000;51.176;-115.568;2023-12-20T03:49:23;2.15;72.12
69598;SHT31;70000;51.176;-115.568;2023-12-20T03:51:52;2.15;72.17
69598;SHT31;70000;51.176;-115.568;2023-12-20T03:54:21;2.16;72.20
69598;SHT31;70000;51.176;-115.568;2023-12-20T03:56:50;2.13;72.26
69598;SHT31;70000;51.176;-115.568;2023-12-20T03:59:19;2.13;72.30
69598;SHT31;70000;51.176;-115.568;2023-12-20T04:01:48;2.12;72.37
69598;SHT31;70000;51.176;-115.568;2023-12-20T04:04:17;2.13;72.47
69598;SHT31;70000;51.176;-115.568;2023-12-20T04:06:46;2.10;72.40
69598;SHT31;70000;51.176;-115.568;2023-12-20T04:09:16;2.11;72.48
69598;SHT31;70000;51.176;-115.568;2023-12-20T04:11:45;2.10;72.51
69598;SHT31;70000;51.176;-115.568;2023-12-20T04:14:14;2.13;72.51
69598;SHT31;70000;51.176;-115.568;2023-12-20T04:16:43;2.12;72.50
69598;SHT31;70000;51.176;-115.568;2023-12-20T04:19:13;2.11;72.53
69598;SHT31;70000;51.176;-115.568;2023-12-20T04:21:42;2.14;72.60
69598;SHT31;70000;51.176;-115.568;2023-12-20T04:24:11;2.17;72.56
69598;SHT31;70000;51.176;-115.568;2023-12-20T04:26:40;2.20;72.51
69598;SHT31;70000;51.176;-115.568;2023-12-20T04:29:09;2.26;72.45
69598;SHT31;70000;51.176;-115.568;2023-12-20T04:31:38;2.29;72.34
69598;SHT31;70000;51.176;-115.568;2023-12-20T04:34:07;2.29;72.30
69598;SHT31;70000;51.176;-115.568;2023-12-20T04:36:36;2.29;72.29
69598;SHT31;70000;51.176;-115.568;2023-12-20T04:39:05;2.28;72.33
69598;SHT31;70000;51.176;-115.568;2023-12-20T04:41:34;2.30;72.37
69598;SHT31;70000;51.176;-115.568;2023-12-20T04:44:03;2.29;72.37
69598;SHT31;70000;51.176;-115.568;2023-12-20T04:46:32;2.28;72.40
69598;SHT31;70000;51.176;-115.568;2023-12-20T04:49:01;2.26;72.34
69598;SHT31;70000;51.176;-115.568;2023-12-20T04:51:35;2.26;72.37
69598;SHT31;70000;51.176;-115.568;2023-12-20T04:54:07;2.23;72.40
69598;SHT31;70000;51.176;-115.568;2023-12-20T04:56:38;2.21;72.48
69598;SHT31;70000;51.176;-115.568;2023-12-20T04:59:07;2.23;72.52
69598;SHT31;70000;51.176;-115.568;2023-12-20T05:01:36;2.25;72.54
69598;SHT31;70000;51.176;-115.568;2023-12-20T05:04:05;2.28;72.51
69598;SHT31;70000;51.176;-115.568;2023-12-20T05:06:34;2.27;72.45
69598;SHT31;70000;51.176;-115.568;2023-12-20T05:09:04;2.25;72.46
69598;SHT31;70000;51.176;-115.568;2023-12-20T05:11:36;2.25;72.49
69598;SHT31;70000;51.176;-115.568;2023-12-20T05:14:05;2.25;72.51
69598;SHT31;70000;51.176;-115.568;2023-12-20T05:16:37;2.23;72.60
69598;SHT31;70000;51.176;-115.568;2023-12-20T05:19:06;2.22;72.65
69598;SHT31;70000;51.176;-115.568;2023-12-20T05:21:35;2.23;72.70
69598;SHT31;70000;51.176;-115.568;2023-12-20T05:24:04;2.25;72.64
69598;SHT31;70000;51.176;-115.568;2023-12-20T05:26:33;2.27;72.69
69598;SHT31;70000;51.176;-115.568;2023-12-20T05:29:02;2.30;72.60
69598;SHT31;70000;51.176;-115.568;2023-12-20T05:31:32;2.32;72.55
69598;SHT31;70000;51.176;-115.568;2023-12-20T05:34:01;2.32;72.52
69598;SHT31;70000;51.176;-115.568;2023-12-20T05:36:31;2.30;72.51
69598;SHT31;70000;51.176;-115.568;2023-12-20T05:39:00;2.33;72.50
69598;SHT31;70000;51.176;-115.568;2023-12-20T05:41:29;2.34;72.50
69598;SHT31;70000;51.176;-115.568;2023-12-20T05:43:58;2.36;72.52
69598;SHT31;70000;51.176;-115.568;2023-12-20T05:46:27;2.36;72.56
69598;SHT31;70000;51.176;-115.568;2023-12-20T05:49:02;2.38;72.51
69598;SHT31;70000;51.176;-115.568;2023-12-20T05:51:31;2.39;72.47
69598;SHT31;70000;51.176;-115.568;2023-12-20T05:57:27;2.39;72.50
69598;SHT31;70000;51.176;-115.568;2023-12-20T05:59:56;2.37;72.50
69598;SHT31;70000;51.176;-115.568;2023-12-20T06:02:24;2.36;72.57
69598;SHT31;70000;51.176;-115.568;2023-12-20T06:04:53;2.37;72.60
69598;SHT31;70000;51.176;-115.568;2023-12-20T06:07:21;2.36;72.54
69598;SHT31;70000;51.176;-115.568;2023-12-20T06:09:50;2.34;72.64
69598;SHT31;70000;51.176;-115.568;2023-12-20T06:12:18;2.31;72.68
69598;SHT31;70000;51.176;-115.568;2023-12-20T06:14:47;2.29;72.70
69598;SHT31;70000;51.176;-115.568;2023-12-20T06:17:15;2.29;72.75
69598;SHT31;70000;51.176;-115.568;2023-12-20T06:19:43;2.30;72.73
69598;SHT31;70000;51.176;-115.568;2023-12-20T06:22:15;2.31;72.80
69598;SHT31;70000;51.176;-115.568;2023-12-20T06:24:43;2.30;72.81
69598;SHT31;70000;51.176;-115.568;2023-12-20T06:27:15;2.31;72.80
69598;SHT31;70000;51.176;-115.568;2023-12-20T06:29:44;2.32;72.80
69598;SHT31;70000;51.176;-115.568;2023-12-20T06:32:15;2.35;72.77
69598;SHT31;70000;51.176;-115.568;2023-12-20T06:34:43;2.34;72.79
69598;SHT31;70000;51.176;-115.568;2023-12-20T06:37:12;2.35;72.80
69598;SHT31;70000;51.176;-115.568;2023-12-20T06:39:42;2.36;72.80
69598;SHT31;70000;51.176;-115.568;2023-12-20T06:42:10;2.35;72.80
69598;SHT31;70000;51.176;-115.568;2023-12-20T06:44:38;2.35;72.79
69598;SHT31;70000;51.176;-115.568;2023-12-20T06:47:07;2.33;72.72
69598;SHT31;70000;51.176;-115.568;2023-12-20T06:49:35;2.30;72.77
69598;SHT31;70000;51.176;-115.568;2023-12-20T06:52:03;2.27;72.88
69598;SHT31;70000;51.176;-115.568;2023-12-20T06:54:32;2.24;72.90
69598;SHT31;70000;51.176;-115.568;2023-12-20T06:57:01;2.21;72.97
69598;SHT31;70000;51.176;-115.568;2023-12-20T07:02:54;2.12;73.18
69598;SHT31;70000;51.176;-115.568;2023-12-20T07:05:23;2.11;73.29
69598;SHT31;70000;51.176;-115.568;2023-12-20T07:07:52;2.09;73.33
69598;SHT31;70000;51.176;-115.568;2023-12-20T07:10:20;2.08;73.52
69598;SHT31;70000;51.176;-115.568;2023-12-20T07:12:49;2.08;73.62
69598;SHT31;70000;51.176;-115.568;2023-12-20T07:15:18;2.08;73.72
69598;SHT31;70000;51.176;-115.568;2023-12-20T07:17:46;2.10;73.72
69598;SHT31;70000;51.176;-115.568;2023-12-20T07:20:15;2.11;73.68
69598;SHT31;70000;51.176;-115.568;2023-12-20T07:22:46;2.13;73.65
69598;SHT31;70000;51.176;-115.568;2023-12-20T07:25:15;2.14;73.62
69598;SHT31;70000;51.176;-115.568;2023-12-20T07:27:43;2.14;73.69
69598;SHT31;70000;51.176;-115.568;2023-12-20T07:30:12;2.13;73.75
69598;SHT31;70000;51.176;-115.568;2023-12-20T07:32:40;2.09;73.80
69598;SHT31;70000;51.176;-115.568;2023-12-20T07:35:09;2.07;73.86
69598;SHT31;70000;51.176;-115.568;2023-12-20T07:37:40;2.04;73.89
69598;SHT31;70000;51.176;-115.568;2023-12-20T07:40:09;2.04;73.94
69598;SHT31;70000;51.176;-115.568;2023-12-20T07:42:37;2.08;73.99
69598;SHT31;70000;51.176;-115.568;2023-12-20T07:45:06;2.09;73.91
69598;SHT31;70000;51.176;-115.568;2023-12-20T07:47:34;2.12;74.01
69598;SHT31;70000;51.176;-115.568;2023-12-20T07:50:03;2.14;73.93
69598;SHT31;70000;51.176;-115.568;2023-12-20T07:52:32;2.16;73.90
69598;SHT31;70000;51.176;-115.568;2023-12-20T07:55:00;2.21;73.90
69598;SHT31;70000;51.176;-115.568;2023-12-20T07:57:29;2.25;73.83
69598;SHT31;70000;51.176;-115.568;2023-12-20T07:59:57;2.32;73.78
69598;SHT31;70000;51.176;-115.568;2023-12-20T08:02:26;2.35;73.71
69598;SHT31;70000;51.176;-115.568;2023-12-20T08:04:54;2.37;73.59
69598;SHT31;70000;51.176;-115.568;2023-12-20T08:07:22;2.34;73.51
69598;SHT31;70000;51.176;-115.568;2023-12-20T08:09:51;2.34;73.52
69598;SHT31;70000;51.176;-115.568;2023-12-20T08:12:21;2.30;73.50
69598;SHT31;70000;51.176;-115.568;2023-12-20T08:14:50;2.30;73.59
69598;SHT31;70000;51.176;-115.568;2023-12-20T08:17:18;2.32;73.70
69598;SHT31;70000;51.176;-115.568;2023-12-20T08:19:46;2.34;73.69
69598;SHT31;70000;51.176;-115.568;2023-12-20T08:22:15;2.36;73.70
69598;SHT31;70000;51.176;-115.568;2023-12-20T08:24:43;2.37;73.62
69598;SHT31;70000;51.176;-115.568;2023-12-20T08:27:11;2.36;73.68
69598;SHT31;70000;51.176;-115.568;2023-12-20T08:29:39;2.38;73.64
69598;SHT31;70000;51.176;-115.568;2023-12-20T08:32:08;2.38;73.56
69598;SHT31;70000;51.176;-115.568;2023-12-20T08:34:36;2.39;73.49
69598;SHT31;70000;51.176;-115.568;2023-12-20T08:37:05;2.39;73.52
69598;SHT31;70000;51.176;-115.568;2023-12-20T08:39:33;2.41;73.61
69598;SHT31;70000;51.176;-115.568;2023-12-20T08:42:01;2.44;73.52
69598;SHT31;70000;51.176;-115.568;2023-12-20T08:44:30;2.41;73.50
69598;SHT31;70000;51.176;-115.568;2023-12-20T08:46:58;2.42;73.50
69598;SHT31;70000;51.176;-115.568;2023-12-20T08:49:27;2.43;73.50
69598;SHT31;70000;51.176;-115.568;2023-12-20T08:51:58;2.43;73.51
69598;SHT31;70000;51.176;-115.568;2023-12-20T08:54:26;2.45;73.50
69598;SHT31;70000;51.176;-115.568;2023-12-20T08:56:54;2.47;73.46
69598;SHT31;70000;51.176;-115.568;2023-12-20T08:59:23;2.48;73.49
69598;SHT31;70000;51.176;-115.568;2023-12-20T09:01:52;2.50;73.48
69598;SHT31;70000;51.176;-115.568;2023-12-20T09:04:21;2.53;73.53
69598;SHT31;70000;51.176;-115.568;2023-12-20T09:06:53;2.57;73.55
69598;SHT31;70000;51.176;-115.568;2023-12-20T09:09:21;2.59;73.41
69598;SHT31;70000;51.176;-115.568;2023-12-20T09:11:50;2.58;73.40
69598;SHT31;70000;51.176;-115.568;2023-12-20T09:14:18;2.61;73.43
69598;SHT31;70000;51.176;-115.568;2023-12-20T09:16:46;2.65;73.37
69598;SHT31;70000;51.176;-115.568;2023-12-20T09:19:15;2.70;73.38
69598;SHT31;70000;51.176;-115.568;2023-12-20T09:21:43;2.70;73.52
69598;SHT31;70000;51.176;-115.568;2023-12-20T09:24:12;2.70;73.33
69598;SHT31;70000;51.176;-115.568;2023-12-20T09:26:43;2.66;73.23
69598;SHT31;70000;51.176;-115.568;2023-12-20T09:29:12;2.63;73.27
69598;SHT31;70000;51.176;-115.568;2023-12-20T09:31:42;2.61;73.26
69598;SHT31;70000;51.176;-115.568;2023-12-20T09:34:11;2.60;73.35
69598;SHT31;70000;51.176;-115.568;2023-12-20T09:36:43;2.61;73.48
69598;SHT31;70000;51.176;-115.568;2023-12-20T09:39:14;2.64;73.45
69598;SHT31;70000;51.176;-115.568;2023-12-20T09:44:29;2.66;73.35
69598;SHT31;70000;51.176;-115.568;2023-12-20T09:47:01;2.66;73.32
69598;SHT31;70000;51.176;-115.568;2023-12-20T09:49:31;2.64;73.38
69598;SHT31;70000;51.176;-115.568;2023-12-20T09:52:01;2.68;73.43
69598;SHT31;70000;51.176;-115.568;2023-12-20T09:54:35;2.71;73.37
69598;SHT31;70000;51.176;-115.568;2023-12-20T09:57:04;2.70;73.29
69598;SHT31;70000;51.176;-115.568;2023-12-20T09:59:32;2.71;73.28
69598;SHT31;70000;51.176;-115.568;2023-12-20T10:02:01;2.68;73.22
69598;SHT31;70000;51.176;-115.568;2023-12-20T10:04:35;2.67;73.35
69598;SHT31;70000;51.176;-115.568;2023-12-20T10:07:04;2.70;73.33
69598;SHT31;70000;51.176;-115.568;2023-12-20T10:09:33;2.72;73.30
69598;SHT31;70000;51.176;-115.568;2023-12-20T10:12:02;2.72;73.27
69598;SHT31;70000;51.176;-115.568;2023-12-20T10:14:32;2.73;73.22
69598;SHT31;70000;51.176;-115.568;2023-12-20T10:17:04;2.72;73.25
69598;SHT31;70000;51.176;-115.568;2023-12-20T10:19:33;2.70;73.29
69598;SHT31;70000;51.176;-115.568;2023-12-20T10:22:03;2.71;73.36
69598;SHT31;70000;51.176;-115.568;2023-12-20T10:24:32;2.73;73.38
69598;SHT31;70000;51.176;-115.568;2023-12-20T10:27:04;2.72;73.35
69598;SHT31;70000;51.176;-115.568;2023-12-20T10:29:36;2.71;73.33
69598;SHT31;70000;51.176;-115.568;2023-12-20T10:32:21;2.72;73.36
69598;SHT31;70000;51.176;-115.568;2023-12-20T10:34:53;2.74;73.37
69598;SHT31;70000;51.176;-115.568;2023-12-20T10:37:23;2.75;73.28
69598;SHT31;70000;51.176;-115.568;2023-12-20T10:39:53;2.71;73.17
69598;SHT31;70000;51.176;-115.568;2023-12-20T10:42:26;2.67;73.35
69598;SHT31;70000;51.176;-115.568;2023-12-20T10:44:55;2.66;73.36
69598;SHT31;70000;51.176;-115.568;2023-12-20T10:47:26;2.66;73.32
69598;SHT31;70000;51.176;-115.568;2023-12-20T10:49:59;2.66;73.35
69598;SHT31;70000;51.176;-115.568;2023-12-20T10:52:29;2.69;73.33
69598;SHT31;70000;51.176;-115.568;2023-12-20T10:55:01;2.69;73.26
69598;SHT31;70000;51.176;-115.568;2023-12-20T10:57:30;2.72;73.30
69598;SHT31;70000;51.176;-115.568;2023-12-20T11:00:01;2.73;73.23
69598;SHT31;70000;51.176;-115.568;2023-12-20T11:02:32;2.75;73.20
69598;SHT31;70000;51.176;-115.568;2023-12-20T11:05:06;2.74;73.19
69598;SHT31;70000;51.176;-115.568;2023-12-20T11:13:26;2.78;73.19
69598;SHT31;70000;51.176;-115.568;2023-12-20T11:16:04;2.79;73.10
69598;SHT31;70000;51.176;-115.568;2023-12-20T11:18:34;2.79;73.03
69598;SHT31;70000;51.176;-115.568;2023-12-20T11:21:04;2.76;73.05
69598;SHT31;70000;51.176;-115.568;2023-12-20T11:23:33;2.75;73.10
69598;SHT31;70000;51.176;-115.568;2023-12-20T11:26:02;2.75;73.08
69598;SHT31;70000;51.176;-115.568;2023-12-20T11:28:32;2.73;73.13
69598;SHT31;70000;51.176;-115.568;2023-12-20T11:31:01;2.71;73.13
69598;SHT31;70000;51.176;-115.568;2023-12-20T11:36:13;2.63;73.22
69598;SHT31;70000;51.176;-115.568;2023-12-20T11:38:55;2.60;73.24
69598;SHT31;70000;51.176;-115.568;2023-12-20T11:41:25;2.56;73.36
69598;SHT31;70000;51.176;-115.568;2023-12-20T11:43:54;2.58;73.41
69598;SHT31;70000;51.176;-115.568;2023-12-20T11:46:23;2.60;73.37
69598;SHT31;70000;51.176;-115.568;2023-12-20T11:48:54;2.57;73.42
69598;SHT31;70000;51.176;-115.568;2023-12-20T11:51:22;2.55;73.50
69598;SHT31;70000;51.176;-115.568;2023-12-20T11:53:54;2.53;73.58
69598;SHT31;70000;51.176;-115.568;2023-12-20T11:56:22;2.53;73.60
69598;SHT31;70000;51.176;-115.568;2023-12-20T11:58:51;2.50;73.70
69598;SHT31;70000;51.176;-115.568;2023-12-20T12:01:20;2.51;73.75
69598;SHT31;70000;51.176;-115.568;2023-12-20T12:03:48;2.50;73.71
69598;SHT31;70000;51.176;-115.568;2023-12-20T12:06:35;2.51;73.77
69598;SHT31;70000;51.176;-115.568;2023-12-20T12:09:06;2.53;73.78
69598;SHT31;70000;51.176;-115.568;2023-12-20T12:11:35;2.56;73.80
69598;SHT31;70000;51.176;-115.568;2023-12-20T12:14:06;2.57;73.76
69598;SHT31;70000;51.176;-115.568;2023-12-20T12:16:35;2.53;73.72
69598;SHT31;70000;51.176;-115.568;2023-12-20T12:19:06;2.50;73.82
69598;SHT31;70000;51.176;-115.568;2023-12-20T12:21:34;2.49;73.80
69598;SHT31;70000;51.176;-115.568;2023-12-20T12:24:22;2.48;73.81
69598;SHT31;70000;51.176;-115.568;2023-12-20T12:26:51;2.48;73.75
69598;SHT31;70000;51.176;-115.568;2023-12-20T12:29:21;2.43;73.79
69598;SHT31;70000;51.176;-115.568;2023-12-20T12:31:50;2.40;73.84
69598;SHT31;70000;51.176;-115.568;2023-12-20T12:34:19;2.35;73.90
69598;SHT31;70000;51.176;-115.568;2023-12-20T12:36:49;2.33;73.96
69598;SHT31;70000;51.176;-115.568;2023-12-20T12:39:18;2.31;74.01
69598;SHT31;70000;51.176;-115.568;2023-12-20T12:41:48;2.32;74.10
69598;SHT31;70000;51.176;-115.568;2023-12-20T12:44:17;2.33;74.10
69598;SHT31;70000;51.176;-115.568;2023-12-20T12:46:46;2.31;74.02
69598;SHT31;70000;51.176;-115.568;2023-12-20T12:49:21;2.27;74.11
69598;SHT31;70000;51.176;-115.568;2023-12-20T12:51:50;2.25;74.19
69598;SHT31;70000;51.176;-115.568;2023-12-20T12:54:19;2.25;74.20
69598;SHT31;70000;51.176;-115.568;2023-12-20T12:56:52;2.24;74.19
69598;SHT31;70000;51.176;-115.568;2023-12-20T12:59:21;2.21;74.20
69598;SHT31;70000;51.176;-115.568;2023-12-20T13:01:50;2.17;74.33
69598;SHT31;70000;51.176;-115.568;2023-12-20T13:04:19;2.16;74.48
69598;SHT31;70000;51.176;-115.568;2023-12-20T13:06:48;2.14;74.58
69598;SHT31;70000;51.176;-115.568;2023-12-20T13:09:17;2.15;74.53
69598;SHT31;70000;51.176;-115.568;2023-12-20T13:11:46;2.14;74.53
69598;SHT31;70000;51.176;-115.568;2023-12-20T13:14:16;2.14;74.65
69598;SHT31;70000;51.176;-115.568;2023-12-20T13:16:45;2.14;74.72
69598;SHT31;70000;51.176;-115.568;2023-12-20T13:19:14;2.17;74.80
69598;SHT31;70000;51.176;-115.568;2023-12-20T13:21:45;2.22;74.73
69598;SHT31;70000;51.176;-115.568;2023-12-20T13:24:14;2.20;74.77
69598;SHT31;70000;51.176;-115.568;2023-12-20T13:26:43;2.21;74.78
69598;SHT31;70000;51.176;-115.568;2023-12-20T13:29:12;2.22;74.78
69598;SHT31;70000;51.176;-115.568;2023-12-20T13:31:41;2.24;74.80
69598;SHT31;70000;51.176;-115.568;2023-12-20T13:34:10;2.25;74.80
69598;SHT31;70000;51.176;-115.568;2023-12-20T13:36:40;2.25;74.80
69598;SHT31;70000;51.176;-115.568;2023-12-20T13:39:09;2.26;74.80
69598;SHT31;70000;51.176;-115.568;2023-12-20T13:41:38;2.27;74.76
69598;SHT31;70000;51.176;-115.568;2023-12-20T13:46:37;2.30;74.65
69598;SHT31;70000;51.176;-115.568;2023-12-20T13:49:06;2.31;74.63
69598;SHT31;70000;51.176;-115.568;2023-12-20T13:51:40;2.30;74.64
69598;SHT31;70000;51.176;-115.568;2023-12-20T13:54:09;2.27;74.75
69598;SHT31;70000;51.176;-115.568;2023-12-20T13:56:38;2.29;74.83
69598;SHT31;70000;51.176;-115.568;2023-12-20T13:59:22;2.30;74.81
69598;SHT31;70000;51.176;-115.568;2023-12-20T14:01:51;2.30;74.83
69598;SHT31;70000;51.176;-115.568;2023-12-20T14:04:20;2.31;74.87
69598;SHT31;70000;51.176;-115.568;2023-12-20T14:07:09;2.31;74.90
69598;SHT31;70000;51.176;-115.568;2023-12-20T14:09:39;2.32;74.92
69598;SHT31;70000;51.176;-115.568;2023-12-20T14:12:16;2.31;74.99
69598;SHT31;70000;51.176;-115.568;2023-12-20T14:14:45;2.32;75.02
69598;SHT31;70000;51.176;-115.568;2023-12-20T14:17:14;2.35;75.05
69598;SHT31;70000;51.176;-115.568;2023-12-20T14:19:43;2.37;75.06
69598;SHT31;70000;51.176;-115.568;2023-12-20T14:22:12;2.42;75.07
69598;SHT31;70000;51.176;-115.568;2023-12-20T14:24:44;2.47;75.00
69598;SHT31;70000;51.176;-115.568;2023-12-20T14:27:13;2.49;75.00
69598;SHT31;70000;51.176;-115.568;2023-12-20T14:29:42;2.51;75.00
69598;SHT31;70000;51.176;-115.568;2023-12-20T14:32:11;2.52;75.03
69598;SHT31;70000;51.176;-115.568;2023-12-20T14:34:42;2.55;75.04
69598;SHT31;70000;51.176;-115.568;2023-12-20T14:37:11;2.57;74.98
69598;SHT31;70000;51.176;-115.568;2023-12-20T14:39:41;2.60;74.95
69598;SHT31;70000;51.176;-115.568;2023-12-20T14:42:13;2.63;74.94
69598;SHT31;70000;51.176;-115.568;2023-12-20T14:44:43;2.66;74.89
69598;SHT31;70000;51.176;-115.568;2023-12-20T14:47:12;2.70;74.83
69598;SHT31;70000;51.176;-115.568;2023-12-20T14:49:42;2.71;74.80
69598;SHT31;70000;51.176;-115.568;2023-12-20T14:52:11;2.73;74.72
69598;SHT31;70000;51.176;-115.568;2023-12-20T14:54:40;2.73;74.73
69598;SHT31;70000;51.176;-115.568;2023-12-20T14:57:11;2.77;74.70
69598;SHT31;70000;51.176;-115.568;2023-12-20T14:59:40;2.78;74.66
69598;SHT31;70000;51.176;-115.568;2023-12-20T15:02:08;2.79;74.63
69598;SHT31;70000;51.176;-115.568;2023-12-20T15:04:38;2.81;74.60
69598;SHT31;70000;51.176;-115.568;2023-12-20T15:07:08;2.82;74.52
69598;SHT31;70000;51.176;-115.568;2023-12-20T15:09:37;2.81;74.50
69598;SHT31;70000;51.176;-115.568;2023-12-20T15:12:10;2.79;74.50
69598;SHT31;70000;51.176;-115.568;2023-12-20T15:14:39;2.78;74.53
69598;SHT31;70000;51.176;-115.568;2023-12-20T15:17:08;2.79;74.60
69598;SHT31;70000;51.176;-115.568;2023-12-20T15:19:37;2.78;74.60
69598;SHT31;70000;51.176;-115.568;2023-12-20T15:22:08;2.78;74.68
69598;SHT31;70000;51.176;-115.568;2023-12-20T15:24:37;2.81;74.70
69598;SHT31;70000;51.176;-115.568;2023-12-20T15:27:08;2.82;74.65
69598;SHT31;70000;51.176;-115.568;2023-12-20T15:29:37;2.83;74.70
69598;SHT31;70000;51.176;-115.568;2023-12-20T15:32:06;2.85;74.70
69598;SHT31;70000;51.176;-115.568;2023-12-20T15:34:36;2.86;74.70
69598;SHT31;70000;51.176;-115.568;2023-12-20T15:37:05;2.86;74.76
69598;SHT31;70000;51.176;-115.568;2023-12-20T15:39:34;2.87;74.80
69598;SHT31;70000;51.176;-115.568;2023-12-20T15:42:03;2.85;74.84
69598;SHT31;70000;51.176;-115.568;2023-12-20T15:44:32;2.87;74.90
69598;SHT31;70000;51.176;-115.568;2023-12-20T15:47:01;2.89;74.90